Main page
METAR-TAF:

METAR-TAF

Airports :

Cristiano Ronaldo International Airport

Funchal, Madeira, Portugal

latitude: 32-41-52N, longitude: 016-46-28W, elevation: 59 m

Current weather observation

The report was made 25 minutes ago, at 21:30 UTC
Wind 7 kt from the North
Temperature 20°C
Humidity 73%
Pressure 1022 hPa
Visibility 10 km or more
Few clouds at a height of 1300 ft

METAR: LPMA 092130Z 35007KT 9999 FEW013 20/15 Q1022

Time: 22:55 (21:55 UTC)

Forecast

The report was made 4 hours and 55 minutes ago, at 17:00 UTC
Forecast valid from 09 at 18 UTC to 10 at 18 UTC
Wind 5 kt from variable directions
Visibility 10 km or more
Scattered clouds at a height of 1500 ft
Becoming
from 09 at 18 UTC to 09 at 21 UTC
Wind 12 kt from the North/Northeast
Probability 30% :
Temporary
from 09 at 18 UTC to 09 at 22 UTC
Visibility: 8000 m
Broken clouds at a height of 1200 ft
light rain, drizzle

TAF: LPMA 091700Z 0918/1018 VRB05KT 9999 SCT015 BECMG 0918/0921 02012KT PROB30 TEMPO 0918/0922 8000 -RADZ BKN012

Weather observations and forecasts of more than 4000 airports (METAR and TAF reports).

The available stations are represented by yellow and red dots on the map.

Hover mouse over dot to see the name of the station.

Then click to see weather observations and forecasts.

To change the map : click on the green buttons with a black cross to zoom in, on the green button with a dash to zoom out, or on the green arrows for adjacent maps.


METAR-TAF: